createdAt,value
2018-05-12T00:01:37.955Z,6.60
2018-05-12T00:04:03.721Z,5.37
2018-05-12T00:06:29.499Z,5.63
2018-05-12T00:08:55.299Z,6.20
2018-05-12T00:11:21.053Z,5.80
2018-05-12T00:13:46.820Z,6.37
2018-05-12T00:16:12.606Z,5.40
2018-05-12T00:18:38.347Z,5.93
2018-05-12T00:21:04.129Z,6.13
2018-05-12T00:23:29.868Z,5.63
2018-05-12T00:25:55.617Z,6.10
2018-05-12T00:28:21.420Z,5.77
2018-05-12T00:30:47.404Z,5.20
2018-05-12T00:33:13.147Z,5.00
2018-05-12T00:35:38.903Z,5.20
2018-05-12T00:38:04.671Z,5.30
2018-05-12T00:40:37.273Z,5.60
2018-05-12T00:43:03.069Z,5.10
2018-05-12T00:45:28.808Z,6.70
2018-05-12T00:47:54.575Z,6.23
2018-05-12T00:50:20.446Z,5.90
2018-05-12T00:52:46.266Z,5.50
2018-05-12T00:55:12.051Z,5.90
2018-05-12T00:57:37.805Z,5.27
2018-05-12T01:00:03.587Z,5.80
2018-05-12T01:02:29.351Z,5.30
2018-05-12T01:04:55.099Z,5.33
2018-05-12T01:07:20.878Z,5.00
2018-05-12T01:09:46.641Z,4.63
2018-05-12T01:12:12.399Z,5.00
2018-05-12T01:14:38.156Z,5.73
2018-05-12T01:17:03.926Z,5.23
2018-05-12T01:19:29.672Z,4.57
2018-05-12T01:21:55.459Z,4.70
2018-05-12T01:24:21.227Z,5.10
2018-05-12T01:26:46.987Z,5.10
2018-05-12T01:29:12.745Z,6.10
2018-05-12T01:31:38.518Z,5.50
2018-05-12T01:34:04.275Z,5.33
2018-05-12T01:36:30.088Z,5.77
2018-05-12T01:38:55.887Z,5.47
2018-05-12T01:41:21.656Z,6.07
2018-05-12T01:43:47.454Z,4.93
2018-05-12T01:46:13.269Z,5.20
2018-05-12T01:48:39.020Z,5.10
2018-05-12T01:51:04.826Z,5.00
2018-05-12T01:53:30.580Z,4.70
2018-05-12T01:55:56.343Z,5.10
2018-05-12T01:58:22.158Z,4.90
2018-05-12T02:00:47.943Z,4.67
2018-05-12T02:03:13.689Z,4.70
2018-05-12T02:05:39.443Z,5.10
2018-05-12T02:08:05.215Z,4.47
2018-05-12T02:10:30.978Z,5.20
2018-05-12T02:12:56.767Z,4.87
2018-05-12T02:15:22.555Z,4.33
2018-05-12T02:17:48.401Z,4.63
2018-05-12T02:20:14.156Z,4.53
2018-05-12T02:22:39.920Z,5.23
2018-05-12T02:25:05.699Z,5.00
2018-05-12T02:27:31.503Z,4.57
2018-05-12T02:29:57.263Z,4.83
2018-05-12T02:32:23.271Z,5.60
2018-05-12T02:34:49.111Z,4.67
2018-05-12T02:37:14.928Z,4.87
2018-05-12T02:39:40.704Z,5.10
2018-05-12T02:42:06.490Z,4.97
2018-05-12T02:44:32.234Z,5.00
2018-05-12T02:46:58.009Z,4.70
2018-05-12T02:49:23.755Z,5.27
2018-05-12T02:51:49.665Z,4.47
2018-05-12T02:54:15.608Z,4.37
2018-05-12T02:56:41.378Z,4.80
2018-05-12T02:59:07.141Z,4.60
2018-05-12T03:01:32.947Z,4.40
2018-05-12T03:03:58.706Z,5.33
2018-05-12T03:06:24.463Z,4.27
2018-05-12T03:08:50.600Z,5.00
2018-05-12T03:11:16.475Z,5.60
2018-05-12T03:13:42.227Z,5.10
2018-05-12T03:16:08.044Z,5.13
2018-05-12T03:18:33.831Z,5.53
2018-05-12T03:20:59.587Z,5.90
2018-05-12T03:23:25.388Z,5.80
2018-05-12T03:25:51.159Z,5.70
2018-05-12T03:28:16.944Z,5.30
2018-05-12T03:30:42.745Z,6.87
2018-05-12T03:33:09.052Z,6.50
2018-05-12T03:35:34.821Z,6.30
2018-05-12T03:38:00.584Z,6.70
2018-05-12T03:40:26.341Z,6.33
2018-05-12T03:42:52.112Z,6.97
2018-05-12T03:45:17.889Z,6.80
2018-05-12T03:47:43.642Z,6.70
2018-05-12T03:50:09.412Z,6.13
2018-05-12T03:52:35.183Z,7.17
2018-05-12T03:55:00.948Z,7.40
2018-05-12T03:57:26.696Z,7.30
2018-05-12T03:59:52.497Z,6.97
2018-05-12T04:02:18.280Z,7.50
2018-05-12T04:04:56.432Z,6.90
2018-05-12T04:07:34.651Z,7.65
2018-05-12T04:10:12.420Z,6.40
2018-05-12T04:12:38.206Z,7.03
2018-05-12T04:15:03.988Z,8.20
2018-05-12T04:17:29.755Z,7.60
2018-05-12T04:19:55.621Z,7.43
2018-05-12T04:22:21.388Z,7.60
2018-05-12T04:24:47.140Z,6.87
2018-05-12T04:27:12.898Z,7.10
2018-05-12T04:29:38.675Z,7.00
2018-05-12T04:32:04.431Z,7.93
2018-05-12T04:34:30.361Z,7.40
2018-05-12T04:36:56.124Z,6.97
2018-05-12T04:39:21.867Z,6.97
2018-05-12T04:41:47.656Z,6.67
2018-05-12T04:44:13.403Z,6.83
2018-05-12T04:46:39.172Z,7.20
2018-05-12T04:49:04.992Z,7.30
2018-05-12T04:51:30.752Z,7.50
2018-05-12T04:53:56.532Z,7.27
2018-05-12T04:56:22.300Z,7.50
2018-05-12T05:01:42.870Z,8.77
2018-05-12T05:04:08.631Z,7.60
2018-05-12T05:06:34.473Z,7.63
2018-05-12T05:09:00.162Z,9.00
2018-05-12T05:11:25.979Z,8.77
2018-05-12T05:13:51.782Z,8.63
2018-05-12T05:16:17.629Z,8.20
2018-05-12T05:18:43.448Z,8.57
2018-05-12T05:21:09.271Z,7.83
2018-05-12T05:23:35.026Z,9.03
2018-05-12T05:26:00.808Z,8.93
2018-05-12T05:28:26.585Z,9.37
2018-05-12T05:30:52.572Z,10.03
2018-05-12T05:33:18.324Z,9.57
2018-05-12T05:35:44.138Z,11.30
2018-05-12T05:38:09.932Z,9.93
2018-05-12T05:40:35.688Z,9.70
2018-05-12T05:43:01.451Z,9.50
2018-05-12T05:45:27.212Z,9.50
2018-05-12T05:47:52.967Z,10.50
2018-05-12T05:50:18.791Z,9.63
2018-05-12T05:52:44.518Z,11.47
2018-05-12T05:55:10.287Z,9.77
2018-05-12T05:57:36.067Z,10.70
2018-05-12T06:00:01.865Z,11.17
2018-05-12T06:02:27.627Z,9.33
2018-05-12T06:04:53.475Z,11.10
2018-05-12T06:07:19.219Z,9.03
2018-05-12T06:09:44.984Z,10.47
2018-05-12T06:12:10.748Z,9.33
2018-05-12T06:14:36.487Z,10.03
2018-05-12T06:17:02.243Z,10.17
2018-05-12T06:19:28.014Z,11.20
2018-05-12T06:21:53.788Z,11.00
2018-05-12T06:24:19.820Z,10.23
2018-05-12T06:26:45.615Z,10.57
2018-05-12T06:29:11.376Z,9.37
2018-05-12T06:31:37.168Z,8.87
2018-05-12T06:34:02.950Z,9.60
2018-05-12T06:36:28.695Z,10.87
2018-05-12T06:38:54.483Z,11.77
2018-05-12T06:41:20.248Z,10.40
2018-05-12T06:43:45.999Z,11.20
2018-05-12T06:46:11.760Z,11.23
2018-05-12T06:48:37.565Z,13.10
2018-05-12T06:51:03.328Z,11.03
2018-05-12T06:53:29.072Z,11.73
2018-05-12T06:55:54.844Z,12.10
2018-05-12T06:58:20.591Z,11.43
2018-05-12T07:00:46.419Z,10.30
2018-05-12T07:03:12.211Z,9.60
2018-05-12T07:05:37.964Z,10.60
2018-05-12T07:08:03.748Z,10.57
2018-05-12T07:10:29.520Z,11.33
2018-05-12T07:12:55.341Z,9.80
2018-05-12T07:15:21.420Z,13.17
2018-05-12T07:17:47.264Z,10.43
2018-05-12T07:20:13.008Z,10.40
2018-05-12T07:22:38.763Z,11.40
2018-05-12T07:25:04.512Z,12.27
2018-05-12T07:27:30.304Z,11.97
2018-05-12T07:29:56.072Z,9.60
2018-05-12T07:32:21.829Z,10.37
2018-05-12T07:34:47.608Z,12.20
2018-05-12T07:37:13.398Z,11.20
2018-05-12T07:39:39.139Z,12.77
2018-05-12T07:42:04.884Z,10.37
2018-05-12T07:44:30.660Z,12.87
2018-05-12T07:46:56.399Z,9.53
2018-05-12T07:49:22.166Z,11.33
2018-05-12T07:51:47.947Z,11.13
2018-05-12T07:54:13.717Z,9.00
2018-05-12T07:56:39.483Z,9.30
2018-05-12T07:59:05.288Z,12.13
2018-05-12T08:01:31.078Z,10.40
2018-05-12T08:03:56.920Z,8.60
2018-05-12T08:06:22.714Z,9.63
2018-05-12T08:08:48.468Z,8.63
2018-05-12T08:11:14.247Z,12.33
2018-05-12T08:13:40.015Z,10.40
2018-05-12T08:16:05.795Z,12.90
2018-05-12T08:18:31.614Z,13.50
2018-05-12T08:20:57.359Z,12.67
2018-05-12T08:23:23.124Z,12.53
2018-05-12T08:25:48.903Z,12.03
2018-05-12T08:28:14.700Z,11.70
2018-05-12T08:30:40.443Z,10.53
2018-05-12T08:33:06.231Z,10.50
2018-05-12T08:35:32.013Z,11.10
2018-05-12T08:37:57.782Z,12.10
2018-05-12T08:40:23.667Z,8.97
2018-05-12T08:42:49.332Z,10.50
2018-05-12T08:45:15.077Z,10.70
2018-05-12T08:47:40.857Z,8.90
2018-05-12T08:50:06.614Z,11.33
2018-05-12T08:52:32.376Z,10.50
2018-05-12T08:54:58.175Z,9.10
2018-05-12T08:57:23.920Z,7.67
2018-05-12T08:59:49.814Z,7.80
2018-05-12T09:02:15.591Z,6.97
2018-05-12T09:04:41.355Z,7.03
2018-05-12T09:07:07.177Z,6.30
2018-05-12T09:09:32.929Z,6.30
2018-05-12T09:11:58.711Z,6.83
2018-05-12T09:14:24.529Z,6.77
2018-05-12T09:19:45.114Z,6.53
2018-05-12T09:22:10.900Z,6.30
2018-05-12T09:24:36.657Z,6.53
2018-05-12T09:27:02.427Z,6.20
2018-05-12T09:29:28.215Z,7.43
2018-05-12T09:31:53.979Z,5.40
2018-05-12T09:34:19.836Z,8.80
2018-05-12T09:36:45.611Z,7.37
2018-05-12T09:39:11.366Z,9.07
2018-05-12T09:41:37.124Z,9.07
2018-05-12T09:44:02.930Z,8.73
2018-05-12T09:46:28.691Z,7.37
2018-05-12T09:48:54.457Z,8.03
2018-05-12T09:51:20.281Z,7.40
2018-05-12T09:53:46.037Z,7.00
2018-05-12T09:56:11.809Z,7.20
2018-05-12T09:58:37.602Z,7.43
2018-05-12T10:01:03.391Z,7.20
2018-05-12T10:03:29.306Z,7.60
2018-05-12T10:05:55.077Z,6.50
2018-05-12T10:08:20.828Z,5.67
2018-05-12T10:10:46.705Z,6.37
2018-05-12T10:13:12.528Z,6.87
2018-05-12T10:15:38.381Z,6.20
2018-05-12T10:18:04.080Z,6.10
2018-05-12T10:20:29.871Z,6.67
2018-05-12T10:22:55.736Z,7.47
2018-05-12T10:25:21.567Z,6.23
2018-05-12T10:27:47.444Z,7.00
2018-05-12T10:30:13.199Z,6.50
2018-05-12T10:32:38.983Z,5.20
2018-05-12T10:35:04.756Z,6.10
2018-05-12T10:37:30.523Z,5.73
2018-05-12T10:39:56.312Z,6.07
2018-05-12T10:42:22.119Z,5.87
2018-05-12T10:44:47.869Z,6.40
2018-05-12T10:47:13.650Z,6.43
2018-05-12T10:49:39.419Z,5.80
2018-05-12T10:52:05.179Z,6.57
2018-05-12T10:54:30.979Z,5.77
2018-05-12T10:56:56.772Z,4.80
2018-05-12T10:59:22.549Z,5.63
2018-05-12T11:01:48.310Z,5.30
2018-05-12T11:04:14.091Z,6.17
2018-05-12T11:06:39.901Z,7.37
2018-05-12T11:09:05.647Z,7.37
2018-05-12T11:11:31.428Z,6.90
2018-05-12T11:14:04.148Z,6.33
2018-05-12T11:16:29.910Z,5.47
2018-05-12T11:18:55.673Z,5.80
2018-05-12T11:21:21.437Z,5.30
2018-05-12T11:23:47.336Z,5.43
2018-05-12T11:26:13.108Z,5.07
2018-05-12T11:28:38.863Z,4.07
2018-05-12T11:31:04.672Z,3.80
2018-05-12T11:33:30.433Z,3.87
2018-05-12T11:35:56.195Z,4.10
2018-05-12T11:38:21.999Z,3.80
2018-05-12T11:40:47.783Z,4.43
2018-05-12T11:43:13.527Z,4.50
2018-05-12T11:45:39.318Z,3.50
2018-05-12T11:48:05.075Z,3.90
2018-05-12T11:50:30.837Z,4.60
2018-05-12T11:52:56.662Z,4.67
2018-05-12T11:55:22.434Z,4.70
2018-05-12T11:57:48.335Z,4.80
2018-05-12T12:00:14.136Z,5.00
2018-05-12T12:02:39.914Z,4.33
2018-05-12T12:05:05.752Z,3.90
2018-05-12T12:07:31.540Z,3.27
2018-05-12T12:09:57.313Z,3.50
2018-05-12T12:12:23.075Z,3.27
2018-05-12T12:14:48.859Z,3.33
2018-05-12T12:17:14.643Z,3.53
2018-05-12T12:19:40.410Z,3.13
2018-05-12T12:22:06.227Z,2.60
2018-05-12T12:24:32.001Z,3.10
2018-05-12T12:26:57.751Z,3.30
2018-05-12T12:29:23.555Z,4.00
2018-05-12T12:31:49.496Z,2.80
2018-05-12T12:34:15.238Z,2.90
2018-05-12T12:36:41.011Z,3.57
2018-05-12T12:39:06.808Z,3.10
2018-05-12T12:41:32.575Z,3.20
2018-05-12T12:43:58.339Z,3.27
2018-05-12T12:46:24.093Z,2.53
2018-05-12T12:48:49.910Z,2.97
2018-05-12T12:51:15.679Z,2.90
2018-05-12T12:53:41.454Z,3.03
2018-05-12T12:56:07.240Z,3.60
2018-05-12T12:58:33.021Z,2.87
2018-05-12T13:00:58.776Z,3.50
2018-05-12T13:03:24.614Z,2.43
2018-05-12T13:05:50.359Z,2.70
2018-05-12T13:08:16.284Z,3.20
2018-05-12T13:10:42.049Z,2.40
2018-05-12T13:13:07.810Z,3.13
2018-05-12T13:15:33.607Z,3.13
2018-05-12T13:17:59.404Z,2.83
2018-05-12T13:20:25.155Z,2.50
2018-05-12T13:22:50.974Z,3.53
2018-05-12T13:25:17.415Z,2.50
2018-05-12T13:27:43.197Z,3.10
2018-05-12T13:30:08.991Z,2.40
2018-05-12T13:32:34.752Z,2.60
2018-05-12T13:35:00.547Z,3.10
2018-05-12T13:37:26.340Z,2.90
2018-05-12T13:39:52.121Z,2.50
2018-05-12T13:42:17.910Z,2.60
2018-05-12T13:44:43.685Z,3.10
2018-05-12T13:47:09.967Z,2.67
2018-05-12T13:49:35.728Z,2.73
2018-05-12T13:52:01.503Z,2.53
2018-05-12T13:54:27.310Z,2.90
2018-05-12T13:56:53.275Z,3.10
2018-05-12T13:59:18.973Z,2.43
2018-05-12T14:01:44.792Z,3.70
2018-05-12T14:04:10.564Z,2.80
2018-05-12T14:06:36.335Z,3.70
2018-05-12T14:09:02.148Z,2.80
2018-05-12T14:11:27.969Z,3.60
2018-05-12T14:13:53.706Z,2.97
2018-05-12T14:16:19.462Z,2.87
2018-05-12T14:18:45.241Z,3.80
2018-05-12T14:21:11.018Z,3.90
2018-05-12T14:23:36.775Z,2.67
2018-05-12T14:26:02.564Z,2.90
2018-05-12T14:28:28.339Z,3.10
2018-05-12T14:30:54.121Z,3.50
2018-05-12T14:33:19.932Z,3.73
2018-05-12T14:35:45.700Z,3.20
2018-05-12T14:38:11.456Z,3.53
2018-05-12T14:40:37.236Z,3.00
2018-05-12T14:43:02.992Z,3.13
2018-05-12T14:45:28.752Z,3.33
2018-05-12T14:47:54.551Z,2.60
2018-05-12T14:50:20.416Z,3.83
2018-05-12T14:52:46.178Z,3.70
2018-05-12T14:55:11.997Z,3.17
2018-05-12T14:57:37.751Z,4.10
2018-05-12T15:00:03.522Z,3.50
2018-05-12T15:02:29.331Z,3.10
2018-05-12T15:04:55.081Z,2.97
2018-05-12T15:07:20.834Z,3.00
2018-05-12T15:09:46.607Z,2.57
2018-05-12T15:12:12.380Z,2.53
2018-05-12T15:14:38.169Z,3.30
2018-05-12T15:17:03.948Z,2.87
2018-05-12T15:19:30.382Z,3.00
2018-05-12T15:21:56.123Z,3.03
2018-05-12T15:24:21.927Z,2.83
2018-05-12T15:26:47.767Z,3.27
2018-05-12T15:29:13.511Z,3.37
2018-05-12T15:31:39.298Z,3.40
2018-05-12T15:34:05.083Z,2.97
2018-05-12T15:36:30.832Z,3.20
2018-05-12T15:38:56.600Z,3.40
2018-05-12T15:41:22.366Z,2.60
2018-05-12T15:43:48.219Z,3.50
2018-05-12T15:46:13.968Z,3.33
2018-05-12T15:48:39.726Z,2.80
2018-05-12T15:51:05.511Z,2.50
2018-05-12T15:53:31.270Z,2.83
2018-05-12T15:55:57.025Z,3.00
2018-05-12T15:58:22.795Z,3.03
2018-05-12T16:00:48.602Z,3.10
2018-05-12T16:03:14.486Z,2.83
2018-05-12T16:05:40.176Z,3.07
2018-05-12T16:08:05.927Z,2.50
2018-05-12T16:10:31.704Z,3.40
2018-05-12T16:12:57.496Z,3.03
2018-05-12T16:15:23.239Z,2.63
2018-05-12T16:17:48.996Z,3.20
2018-05-12T16:20:14.775Z,3.00
2018-05-12T16:22:40.541Z,3.20
2018-05-12T16:25:06.296Z,3.40
2018-05-12T16:27:32.087Z,2.67
2018-05-12T16:29:57.856Z,3.07
2018-05-12T16:32:23.615Z,3.10
2018-05-12T16:34:49.392Z,3.47
2018-05-12T16:37:15.147Z,3.07
2018-05-12T16:39:40.924Z,2.77
2018-05-12T16:42:06.726Z,2.90
2018-05-12T16:44:32.524Z,3.77
2018-05-12T16:46:58.277Z,3.57
2018-05-12T16:49:24.072Z,3.83
2018-05-12T16:51:49.826Z,3.23
2018-05-12T16:54:15.583Z,3.13
2018-05-12T16:56:41.347Z,4.30
2018-05-12T16:59:07.127Z,3.77
2018-05-12T17:01:32.864Z,3.30
2018-05-12T17:03:58.639Z,3.53
2018-05-12T17:06:24.449Z,3.93
2018-05-12T17:08:50.190Z,3.90
2018-05-12T17:11:15.955Z,3.70
2018-05-12T17:13:41.730Z,4.97
2018-05-12T17:16:07.491Z,4.07
2018-05-12T17:18:33.267Z,4.23
2018-05-12T17:20:59.060Z,3.23
2018-05-12T17:23:24.906Z,3.70
2018-05-12T17:25:50.619Z,3.50
2018-05-12T17:28:16.391Z,3.90
2018-05-12T17:30:42.157Z,3.93
2018-05-12T17:33:07.936Z,3.83
2018-05-12T17:35:33.680Z,3.50
2018-05-12T17:37:59.538Z,3.50
2018-05-12T17:40:25.221Z,3.67
2018-05-12T17:42:50.974Z,4.10
2018-05-12T17:45:16.756Z,3.27
2018-05-12T17:47:42.512Z,3.50
2018-05-12T17:50:08.332Z,3.40
2018-05-12T17:52:34.048Z,2.77
2018-05-12T17:54:59.812Z,3.07
2018-05-12T17:57:25.583Z,2.93
2018-05-12T17:59:51.355Z,4.80
2018-05-12T18:02:17.211Z,3.77
2018-05-12T18:04:42.955Z,4.20
2018-05-12T18:07:08.722Z,4.33
2018-05-12T18:09:34.483Z,4.30
2018-05-12T18:12:00.252Z,4.80
2018-05-12T18:14:26.016Z,3.87
2018-05-12T18:16:51.775Z,3.57
2018-05-12T18:19:17.523Z,4.37
2018-05-12T18:21:43.311Z,4.00
2018-05-12T18:24:09.054Z,3.90
2018-05-12T18:26:34.799Z,4.27
2018-05-12T18:29:00.579Z,4.53
2018-05-12T18:31:26.340Z,4.20
2018-05-12T18:33:52.091Z,4.43
2018-05-12T18:36:18.008Z,4.37
2018-05-12T18:38:43.774Z,4.90
2018-05-12T18:41:09.547Z,4.77
2018-05-12T18:43:35.307Z,4.43
2018-05-12T18:46:01.069Z,4.77
2018-05-12T18:48:26.837Z,5.07
2018-05-12T18:50:52.583Z,5.57
2018-05-12T18:53:18.436Z,5.10
2018-05-12T18:55:44.195Z,5.70
2018-05-12T18:58:09.951Z,6.00
2018-05-12T19:00:35.691Z,5.70
2018-05-12T19:03:01.474Z,5.37
2018-05-12T19:05:27.227Z,7.00
2018-05-12T19:07:52.981Z,5.63
2018-05-12T19:10:18.747Z,6.37
2018-05-12T19:12:44.519Z,5.80
2018-05-12T19:15:10.303Z,6.27
2018-05-12T19:17:36.047Z,6.47
2018-05-12T19:20:01.799Z,6.97
2018-05-12T19:22:27.594Z,6.77
2018-05-12T19:24:53.327Z,6.30
2018-05-12T19:27:19.094Z,5.90
2018-05-12T19:29:44.871Z,7.93
2018-05-12T19:32:10.607Z,6.47
2018-05-12T19:34:36.360Z,7.70
2018-05-12T19:37:02.143Z,6.70
2018-05-12T19:39:27.916Z,7.30
2018-05-12T19:41:53.683Z,7.20
2018-05-12T19:44:19.439Z,6.20
2018-05-12T19:46:45.204Z,7.87
2018-05-12T19:49:11.009Z,7.60
2018-05-12T19:51:36.784Z,7.17
2018-05-12T19:54:02.547Z,7.13
2018-05-12T19:56:28.331Z,7.20
2018-05-12T19:58:54.077Z,7.97
2018-05-12T20:01:19.821Z,7.10
2018-05-12T20:03:45.582Z,6.83
2018-05-12T20:06:11.343Z,7.80
2018-05-12T20:08:37.100Z,7.30
2018-05-12T20:11:02.888Z,7.70
2018-05-12T20:13:28.661Z,7.40
2018-05-12T20:15:54.542Z,8.73
2018-05-12T20:18:20.575Z,8.60
2018-05-12T20:20:46.348Z,7.43
2018-05-12T20:23:12.102Z,7.47
2018-05-12T20:25:37.976Z,7.70
2018-05-12T20:28:03.668Z,8.63
2018-05-12T20:30:29.452Z,7.10
2018-05-12T20:32:55.255Z,7.50
2018-05-12T20:35:21.027Z,7.57
2018-05-12T20:37:46.804Z,8.30
2018-05-12T20:40:12.540Z,9.10
2018-05-12T20:42:38.275Z,9.17
2018-05-12T20:45:04.088Z,8.57
2018-05-12T20:47:29.904Z,9.13
2018-05-12T20:49:55.682Z,8.27
2018-05-12T20:52:21.451Z,8.97
2018-05-12T20:54:47.208Z,9.10
2018-05-12T20:57:12.958Z,8.10
2018-05-12T20:59:38.754Z,9.20
2018-05-12T21:02:04.539Z,9.70
2018-05-12T21:04:30.288Z,8.53
2018-05-12T21:06:56.059Z,9.53
2018-05-12T21:09:21.840Z,9.57
2018-05-12T21:11:47.679Z,9.80
2018-05-12T21:14:13.528Z,9.90
2018-05-12T21:16:39.200Z,9.80
2018-05-12T21:19:04.950Z,10.03
2018-05-12T21:21:30.695Z,10.47
2018-05-12T21:23:56.443Z,9.77
2018-05-12T21:26:22.214Z,8.97
2018-05-12T21:28:48.058Z,9.77
2018-05-12T21:31:13.898Z,10.33
2018-05-12T21:33:39.667Z,10.20
2018-05-12T21:36:05.431Z,10.70
2018-05-12T21:38:31.179Z,9.20
2018-05-12T21:40:56.950Z,10.10
2018-05-12T21:43:22.700Z,9.90
2018-05-12T21:45:48.859Z,10.03
2018-05-12T21:48:14.624Z,9.50
2018-05-12T21:50:40.380Z,9.57
2018-05-12T21:53:06.150Z,11.00
2018-05-12T21:55:31.916Z,9.17
2018-05-12T21:57:57.657Z,11.83
2018-05-12T22:00:23.390Z,9.87
2018-05-12T22:02:49.399Z,10.77
2018-05-12T22:05:15.162Z,9.87
2018-05-12T22:07:40.982Z,10.30
2018-05-12T22:10:06.727Z,11.70
2018-05-12T22:12:32.481Z,11.93
2018-05-12T22:14:58.239Z,10.73
2018-05-12T22:17:24.100Z,12.90
2018-05-12T22:19:50.041Z,11.87
2018-05-12T22:22:15.799Z,11.47
2018-05-12T22:24:41.595Z,13.17
2018-05-12T22:27:07.339Z,13.13
2018-05-12T22:29:33.096Z,12.60
2018-05-12T22:31:58.864Z,16.23
2018-05-12T22:34:24.611Z,12.60
2018-05-12T22:36:50.411Z,13.50
2018-05-12T22:39:16.152Z,14.50
2018-05-12T22:41:41.912Z,14.20
2018-05-12T22:44:07.667Z,15.73
2018-05-12T22:46:33.427Z,15.30
2018-05-12T22:48:59.191Z,15.40
2018-05-12T22:51:25.059Z,15.77
2018-05-12T22:53:50.795Z,16.27
2018-05-12T22:56:16.548Z,16.80
2018-05-12T22:58:42.355Z,15.13
2018-05-12T23:01:08.110Z,14.60
2018-05-12T23:03:33.856Z,14.90
2018-05-12T23:05:59.615Z,16.20
2018-05-12T23:08:25.364Z,15.33
2018-05-12T23:10:51.124Z,16.23
2018-05-12T23:13:16.900Z,15.87
2018-05-12T23:15:42.677Z,16.30
2018-05-12T23:20:52.451Z,17.70
2018-05-12T23:23:18.306Z,19.57
2018-05-12T23:25:44.081Z,17.60
2018-05-12T23:30:54.376Z,18.30
2018-05-12T23:33:20.152Z,17.17
2018-05-12T23:35:45.904Z,17.53
2018-05-12T23:38:11.680Z,19.03
2018-05-12T23:40:37.432Z,20.00
2018-05-12T23:43:03.214Z,18.67
2018-05-12T23:45:28.985Z,18.60
2018-05-12T23:47:54.758Z,20.20
2018-05-12T23:50:20.597Z,18.67
2018-05-12T23:52:46.356Z,19.10
2018-05-12T23:55:12.104Z,19.10
2018-05-12T23:57:37.875Z,20.77
